Latest Weather Observations for Georgetown Airport

IDQ60801

Issued at 1:02 pm EST Friday 31 July 2015 (issued every 30 minutes, with the page automatically refreshed every 10 minutes)

About weather observations | Map of weather stations | Latest weather observations for QLD | Other Formats
Station Details ID: 030124 Name: GEORGETOWN AIRPORT Lat: -18.30 Lon: 143.53 Height: 301.77 m
Data from the previous 72 hours. | See also: Recent months at Georgetown Airport
Date/Time
EST
Temp
°C
App
Temp
°C
Dew
Point
Rel
Hum
%
Delta-T
°C
Wind Press
QNH
hPa
Press
MSL
hPa
Rain
since 9 am
mm
Dir
 
Spd
km/h
Gust
km/h
Spd
kts
Gust
kts
31/01:00pm 26.9 24.2 8.8 32 10.0 ESE 13 24 7 13 1018.6 - 0.0
31/12:30pm 26.4 23.0 9.3 34 9.5 E 17 26 9 14 1019.2 - 0.0
31/12:00pm 25.6 22.2 9.0 35 9.1 E 17 26 9 14 1019.8 1018.8 0.0
31/11:30am 25.1 21.3 9.8 38 8.5 E 20 30 11 16 1020.3 - 0.0
31/11:00am 24.7 21.3 10.6 41 8.0 E 19 28 10 15 1020.7 - 0.0
31/10:30am 24.1 20.7 10.4 42 7.7 E 19 32 10 17 1021.2 - 0.0
31/10:00am 23.2 19.9 10.9 46 6.9 E 19 32 10 17 1021.5 - 0.0
31/09:30am 22.5 18.2 10.9 48 6.5 E 24 39 13 21 1021.3 - 0.0
31/09:00am 21.1 17.4 11.4 54 5.4 E 22 28 12 15 1021.1 1020.1 0.0
31/08:30am 20.3 18.2 11.2 56 5.1 ESE 13 24 7 13 1020.8 - 0.0
31/08:00am 19.2 17.0 10.7 58 4.7 E 13 20 7 11 1020.4 - 0.0
31/07:30am 17.0 15.3 9.7 62 3.9 E 9 13 5 7 1020.3 - 0.0
31/07:00am 16.6 14.8 9.3 62 3.8 E 9 15 5 8 1020.0 - 0.0
31/06:30am 16.5 14.6 9.2 62 3.8 ESE 9 13 5 7 1019.4 - 0.0
31/06:00am 17.0 15.2 9.4 61 4.0 ESE 9 13 5 7 1019.1 1018.1 0.0
31/05:30am 17.8 15.6 9.4 58 4.5 ESE 11 17 6 9 1019.0 - 0.0
31/05:00am 18.3 15.8 9.6 57 4.7 ESE 13 22 7 12 1018.9 - 0.0
31/04:30am 18.4 15.1 9.7 57 4.7 ESE 17 28 9 15 1018.8 - 0.0
31/04:00am 18.8 15.6 9.8 56 4.8 ESE 17 30 9 16 1018.9 - 0.0
31/03:30am 19.0 15.3 9.5 54 5.1 E 19 30 10 16 1019.2 - 0.0
31/03:00am 19.0 15.8 9.8 55 5.0 ESE 17 26 9 14 1019.3 1018.3 0.0
31/02:30am 19.2 15.9 9.7 54 5.1 E 17 30 9 16 1019.3 - 0.0
31/02:00am 19.3 16.1 9.8 54 5.1 E 17 28 9 15 1019.6 - 0.0
31/01:30am 19.6 15.8 9.8 53 5.3 E 20 28 11 15 1020.0 - 0.0
31/01:00am 19.6 16.6 9.2 51 5.6 E 15 24 8 13 1020.2 - 0.0
31/12:30am 20.0 16.6 9.0 49 5.9 E 17 26 9 14 1020.5 - 0.0
31/12:00am 20.3 17.6 8.9 48 6.1 E 13 20 7 11 1020.5 1019.5 0.0
 
Date/Time
EST
Temp
°C
App
Temp
°C
Dew
Point
Rel
Hum
%
Delta-T
°C
Wind Press
QNH
hPa
Press
MSL
hPa
Rain
since 9 am
mm
Dir
 
Spd
km/h
Gust
km/h
Spd
kts
Gust
kts
30/11:30pm 20.8 17.9 9.7 49 6.0 E 15 20 8 11 1020.5 - 0.0
30/11:00pm 20.8 19.0 9.4 48 6.2 E 9 13 5 7 1020.5 - 0.0
30/10:30pm 21.4 18.4 7.6 41 7.2 E 13 19 7 10 1020.3 - 0.0
30/10:00pm 21.1 18.1 5.9 37 7.7 E 11 17 6 9 1020.2 - 0.0
30/09:30pm 21.1 18.8 5.9 37 7.7 ESE 7 11 4 6 1019.9 - 0.0
30/09:00pm 22.1 19.9 6.3 36 8.1 SE 7 11 4 6 1019.7 1018.6 0.0
30/08:30pm 22.6 20.4 6.4 35 8.4 SE 7 11 4 6 1019.4 - 0.0
30/08:00pm 23.3 20.9 7.0 35 8.6 SE 9 13 5 7 1019.2 - 0.0
30/07:30pm 23.7 21.3 6.9 34 8.8 SE 9 11 5 6 1018.8 - 0.0
30/07:00pm 24.1 21.8 7.3 34 8.9 SE 9 11 5 6 1018.4 - 0.0
30/06:30pm 25.1 23.1 7.3 32 9.5 SE 7 11 4 6 1018.3 - 0.0
30/06:00pm 26.5 24.6 7.5 30 10.2 S 7 11 4 6 1018.1 1017.1 0.0
30/05:30pm 27.5 26.1 7.4 28 10.9 ENE 4 13 2 7 1017.8 - 0.0
30/05:00pm 27.8 26.4 7.1 27 11.2 SSE 4 6 2 3 1017.6 - 0.0
30/04:30pm 27.8 25.4 7.1 27 11.2 ENE 9 15 5 8 1017.5 - 0.0
30/04:00pm 27.9 25.4 6.6 26 11.4 SSW 9 15 5 8 1017.4 - 0.0
30/03:30pm 27.8 25.3 6.6 26 11.3 ESE 9 19 5 10 1017.6 - 0.0
30/03:00pm 27.9 25.8 6.6 26 11.4 S 7 20 4 11 1017.8 1016.9 0.0
30/02:30pm 27.7 25.1 5.9 25 11.5 SSE 9 22 5 12 1018.3 - 0.0
30/02:00pm 27.5 24.2 6.3 26 11.3 SE 13 24 7 13 1018.7 - 0.0
30/01:30pm 27.4 23.8 6.8 27 11.0 S 15 22 8 12 1019.2 - 0.0
30/01:00pm 26.6 23.7 8.1 31 10.1 SE 13 26 7 14 1019.8 - 0.0
30/12:30pm 25.8 23.2 9.2 35 9.2 E 13 20 7 11 1020.3 - 0.0
30/12:00pm 24.9 22.2 10.4 40 8.1 ESE 15 20 8 11 1020.9 1020.0 0.0
30/11:30am 24.1 21.2 11.1 44 7.4 E 17 26 9 14 1021.5 - 0.0
30/11:00am 23.2 19.9 10.9 46 6.9 ESE 19 28 10 15 1021.8 - 0.0
30/10:30am 23.2 20.0 11.3 47 6.7 SE 19 26 10 14 1022.2 - 0.0
30/10:00am 22.5 19.0 10.9 48 6.5 ESE 20 30 11 16 1022.4 - 0.0
30/09:30am 21.4 18.2 11.4 53 5.6 ESE 19 28 10 15 1022.4 - 0.0
30/09:00am 20.9 17.9 11.8 56 5.1 ESE 19 28 10 15 1022.1 1021.1 0.0
30/08:30am 19.9 16.7 11.9 60 4.5 ESE 20 30 11 16 1021.7 - 0.0
30/08:00am 19.1 16.2 12.4 65 3.8 ESE 19 26 10 14 1021.5 - 0.0
30/07:30am 18.4 15.5 12.4 68 3.4 ESE 19 26 10 14 1021.2 - 0.0
30/07:00am 17.9 14.9 12.6 71 3.0 ESE 20 33 11 18 1021.0 - 0.0
30/06:30am 17.7 15.3 12.6 72 2.9 ESE 17 28 9 15 1020.7 - 0.0
30/06:00am 17.8 15.4 12.7 72 2.9 ESE 17 28 9 15 1020.5 1019.5 0.0
30/05:30am 17.9 15.5 12.8 72 2.9 ESE 17 26 9 14 1020.2 - 0.0
30/05:00am 18.0 16.1 12.9 72 2.9 ESE 15 24 8 13 1020.1 - 0.0
30/04:30am 18.2 15.9 13.1 72 2.9 ESE 17 30 9 16 1020.1 - 0.0
30/04:00am 18.0 15.7 13.1 73 2.8 ESE 17 28 9 15 1020.0 - 0.0
30/03:30am 18.1 16.5 12.8 71 3.0 ESE 13 24 7 13 1020.0 - 0.0
30/03:00am 18.5 16.9 12.7 69 3.3 ESE 13 22 7 12 1019.9 1018.9 0.0
30/02:30am 18.8 17.9 12.5 67 3.6 SE 9 17 5 9 1019.8 - 0.0
30/02:00am 19.3 17.3 12.6 65 3.8 E 15 26 8 14 1020.2 - 0.0
30/01:30am 19.5 17.4 12.5 64 4.0 E 15 22 8 12 1020.3 - 0.0
30/01:00am 19.8 17.6 12.1 61 4.4 E 15 20 8 11 1020.6 - 0.0
30/12:30am 20.3 17.1 12.0 59 4.7 E 20 32 11 17 1020.6 - 0.0
30/12:00am 20.6 17.5 12.1 58 4.8 E 20 35 11 19 1020.7 1019.6 0.0
 
Date/Time
EST
Temp
°C
App
Temp
°C
Dew
Point
Rel
Hum
%
Delta-T
°C
Wind Press
QNH
hPa
Press
MSL
hPa
Rain
since 9 am
mm
Dir
 
Spd
km/h
Gust
km/h
Spd
kts
Gust
kts
29/11:30pm 20.9 17.7 11.8 56 5.1 E 20 32 11 17 1020.9 - 0.0
29/11:00pm 21.1 17.1 11.7 55 5.3 E 24 37 13 20 1020.9 - 0.0
29/10:30pm 21.1 17.9 12.0 56 5.2 E 20 33 11 18 1021.2 - 0.0
29/10:00pm 21.3 18.2 12.2 56 5.2 E 20 30 11 16 1021.2 - 0.0
29/09:30pm 21.7 18.1 12.0 54 5.5 E 22 33 12 18 1021.2 - 0.0
29/09:00pm 22.1 18.1 11.8 52 5.8 E 24 39 13 21 1021.2 1020.3 0.0
29/08:30pm 22.3 18.4 12.0 52 5.9 E 24 37 13 20 1021.1 - 0.0
29/08:00pm 22.7 19.1 12.0 50 6.1 E 22 37 12 20 1021.1 - 0.0
29/07:30pm 23.5 19.9 11.9 48 6.7 E 22 33 12 18 1020.8 - 0.0
29/07:00pm 24.4 21.1 11.7 45 7.3 E 20 35 11 19 1020.2 - 0.0
29/06:30pm 25.8 21.9 10.8 39 8.5 E 22 33 12 18 1019.8 - 0.0
29/06:00pm 26.9 23.6 9.7 34 9.6 ESE 17 24 9 13 1019.4 1018.4 0.0
29/05:30pm 27.4 24.4 9.3 32 10.1 SE 15 24 8 13 1019.0 - 0.0
29/05:00pm 28.5 25.6 8.2 28 11.2 ESE 13 22 7 12 1018.8 - 0.0
29/04:30pm 28.9 26.0 8.0 27 11.5 E 13 22 7 12 1018.5 - 0.0
29/04:00pm 28.9 26.0 8.0 27 11.5 SE 13 24 7 13 1018.4 - 0.0
29/03:30pm 29.3 26.1 8.4 27 11.6 ESE 15 24 8 13 1018.6 - 0.0
29/03:00pm 29.2 26.5 8.8 28 11.4 SE 13 20 7 11 1018.8 1017.8 0.0
29/02:30pm 28.2 24.6 8.5 29 10.9 ESE 17 26 9 14 1019.1 - 0.0
29/02:00pm 28.7 25.9 8.4 28 11.3 ESE 13 20 7 11 1019.3 - 0.0
29/01:30pm 27.8 24.5 8.1 29 10.8 E 15 28 8 15 1019.6 - 0.0
29/01:00pm 27.0 23.3 8.0 30 10.4 E 17 28 9 15 1020.2 - 0.0
29/12:30pm 27.3 23.8 8.7 31 10.3 SE 17 28 9 15 1020.9 - 0.0
29/12:00pm 26.0 21.9 8.0 32 9.7 SE 19 28 10 15 1021.6 1020.7 0.0
29/11:30am 25.9 21.9 8.4 33 9.6 E 19 30 10 16 1022.2 - 0.0
29/11:00am 24.4 19.9 8.4 36 8.7 ESE 22 35 12 19 1022.5 - 0.0
29/10:30am 23.7 20.1 8.2 37 8.3 ESE 17 26 9 14 1022.8 - 0.0
29/10:00am 22.5 17.5 8.2 40 7.6 ESE 24 39 13 21 1023.0 - 0.0
29/09:30am 21.9 17.8 8.8 43 7.1 ESE 20 32 11 17 1023.1 - 0.0
29/09:00am 20.7 14.9 9.6 49 6.0 ESE 30 44 16 24 1023.0 1022.0 0.0
29/08:36am 20.5 15.1 9.4 49 6.0 ESE 28 48 15 26 1022.9 - 0.0
29/08:30am 20.5 15.5 9.4 49 6.0 ESE 26 43 14 23 1022.9 - 0.0
29/08:00am 20.1 15.8 9.4 50 5.8 ESE 22 35 12 19 1022.8 - 0.0
29/07:30am 19.6 15.9 9.5 52 5.4 ESE 19 30 10 16 1022.5 - 0.0
29/07:00am 19.3 15.7 10.6 57 4.8 ESE 20 35 11 19 1022.1 - 0.0
29/06:30am 19.2 15.7 10.2 56 4.9 ESE 19 32 10 17 1021.7 - 0.0
29/06:00am 19.4 15.4 9.0 51 5.5 ESE 20 33 11 18 1021.5 1020.5 0.0
29/05:30am 19.3 15.8 8.9 51 5.5 ESE 17 32 9 17 1021.1 - 0.0
29/05:00am 19.4 16.2 10.1 55 5.1 ESE 17 30 9 16 1021.1 - 0.0
29/04:30am 19.7 16.7 12.0 61 4.3 ESE 19 28 10 15 1021.1 - 0.0
29/04:00am 19.9 17.1 12.7 63 4.1 ESE 19 28 10 15 1021.2 - 0.0
29/03:30am 20.1 17.8 13.1 64 4.0 ESE 17 26 9 14 1021.2 - 0.0
29/03:00am 20.5 18.0 13.5 64 4.1 ESE 19 33 10 18 1021.3 1020.4 0.0
29/02:30am 20.6 18.2 13.8 65 4.0 ESE 19 28 10 15 1021.5 - 0.0
29/02:00am 21.1 18.5 13.8 63 4.3 ESE 20 41 11 22 1021.5 - 0.0
29/01:30am 21.6 20.2 13.5 60 4.7 ESE 13 24 7 13 1021.5 - 0.0
29/01:00am 21.6 20.5 13.2 59 4.9 E 11 17 6 9 1021.5 - 0.0
29/12:30am 21.9 20.2 13.5 59 4.9 E 15 26 8 14 1021.7 - 0.0
29/12:00am 22.0 20.6 13.4 58 5.0 ESE 13 26 7 14 1021.9 1020.9 0.0
 
Date/Time
EST
Temp
°C
App
Temp
°C
Dew
Point
Rel
Hum
%
Delta-T
°C
Wind Press
QNH
hPa
Press
MSL
hPa
Rain
since 9 am
mm
Dir
 
Spd
km/h
Gust
km/h
Spd
kts
Gust
kts
28/11:30pm 22.2 20.8 13.5 57 5.1 ESE 13 22 7 12 1022.0 - 0.0
28/11:00pm 22.5 20.8 13.6 57 5.2 ESE 15 22 8 12 1022.1 - 0.0
28/10:30pm 22.9 21.2 13.7 56 5.4 ESE 15 24 8 13 1022.0 - 0.0
28/10:00pm 23.2 21.1 13.7 55 5.6 ESE 17 30 9 16 1021.9 - 0.0
28/09:30pm 23.5 22.2 13.7 54 5.8 ESE 13 20 7 11 1021.8 - 0.0
28/09:00pm 23.8 22.1 13.6 52 6.0 E 15 22 8 12 1021.6 1020.6 0.0
28/08:30pm 24.3 22.6 13.5 51 6.4 ESE 15 28 8 15 1021.2 - 0.0
28/08:00pm 24.8 23.3 13.0 47 6.9 ESE 13 20 7 11 1021.1 - 0.0
28/07:30pm 25.2 24.0 12.8 46 7.3 ESE 11 19 6 10 1020.6 - 0.0
28/07:00pm 25.7 23.5 13.2 46 7.4 E 17 28 9 15 1020.0 - 0.0
28/06:30pm 26.2 24.0 13.3 45 7.7 ESE 17 26 9 14 1020.0 - 0.0
28/06:00pm 26.9 24.1 13.3 43 8.1 ESE 20 32 11 17 1019.8 1018.8 0.0
28/05:30pm 27.8 25.2 13.3 40 8.7 ESE 19 28 10 15 1019.7 - 0.0
28/05:00pm 28.0 25.9 13.5 41 8.7 SE 17 30 9 16 1019.3 - 0.0
28/04:30pm 29.3 26.7 13.1 37 9.7 ESE 19 26 10 14 1018.9 - 0.0
28/04:00pm 29.4 26.8 13.2 37 9.7 ESE 19 28 10 15 1018.6 - 0.0
28/03:30pm 28.5 26.0 13.6 40 9.0 ESE 19 32 10 17 1018.5 - 0.0
28/03:00pm 29.6 27.7 14.2 39 9.4 ESE 17 32 9 17 1018.6 1017.6 0.0
28/02:30pm 29.4 26.9 14.0 39 9.4 ESE 20 30 11 16 1018.9 - 0.0
28/02:00pm 29.3 27.1 14.3 40 9.2 ESE 19 30 10 16 1019.1 - 0.0
28/01:30pm 28.9 26.7 14.3 40 8.9 SE 19 28 10 15 1019.4 - 0.0

Other Formats:

Comma delimited format used in spreadsheet applications
http://www.bom.gov.au/fwo/IDQ60801/IDQ60801.94274.axf

JavaScript Object Notation format (JSON) in row-major order
http://www.bom.gov.au/fwo/IDQ60801/IDQ60801.94274.json